Terminal Aerodrome Forecast
Issued by NWS Louisville, KY

Home | Current Version | Previous Version | Text Only | Print | Product List | Glossary On
Versions: 1 2 3 4 5 6 7 8 9 10 11 12 13 14 15 16 17 18 19
000
FTUS43 KLMK 262300
TAFBWG
TAF
KBWG 262328Z 2700/2724 VRB03KT P6SM SKC
     FM270600 00000KT 5SM BR FEW250
      TEMPO 2710/2712 2SM BR SCT002
     FM271300 35004KT P6SM FEW040
     FM271800 06006KT P6SM SCT060=

USA.gov is the U.S. government's official web portal to all federal, state and local government web resources and services.